Time;durP1;ratioP1;P1;durP2;ratioP2;P2;SDS_P1;SDS_P2;PMS_P1;PMS_P2;Temp;Humidity;BMP_temperature;BMP_pressure;BME280_temperature;BME280_humidity;BME280_pressure;Samples;Min_cycle;Max_cycle;Signal;HPM_P1;HPM_P2
2021/05/28 00:00:08;;;;;;;16.48;5.43;;;;;;;;;;1453480;40;20912;-81
2021/05/28 00:01:10;;;;;;;14.65;6.05;;;;;;;;;;1453640;40;20841;-81
2021/05/28 00:02:12;;;;;;;15.23;5.70;;;;;;;;;;1453727;40;20528;-79
2021/05/28 00:03:13;;;;;;;14.73;5.55;;;;;;;;;;1448098;41;20514;-80
2021/05/28 00:04:15;;;;;;;14.27;5.13;;;;;;;;;;1442273;41;20418;-81
2021/05/28 00:05:17;;;;;;;15.60;6.80;;;;;;;;;;1452146;40;20436;-80
2021/05/28 00:06:18;;;;;;;11.88;4.80;;;;;;;;;;1453698;40;20407;-81
2021/05/28 00:07:20;;;;;;;14.60;5.43;;;;;;;;;;1456938;40;20411;-81
2021/05/28 00:08:22;;;;;;;13.55;5.38;;;;;;;;;;1456977;40;20459;-81
2021/05/28 00:09:25;;;;;;;13.40;5.10;;;;;;;;;;1451108;40;20466;-81
2021/05/28 00:10:27;;;;;;;10.65;4.80;;;;;;;;;;1453314;40;20828;-81
2021/05/28 00:11:29;;;;;;;12.80;5.28;;;;;;;;;;1453441;40;20436;-81
2021/05/28 00:12:30;;;;;;;10.95;4.78;;;;;;;;;;1441895;41;20425;-80
2021/05/28 00:13:32;;;;;;;12.20;5.25;;;;;;;;;;1445490;40;20479;-81
2021/05/28 00:14:34;;;;;;;11.23;5.47;;;;;;;;;;1453616;40;20460;-81
2021/05/28 00:15:36;;;;;;;8.32;5.05;;;;;;;;;;1461321;40;20517;-81
2021/05/28 00:16:37;;;;;;;14.27;5.53;;;;;;;;;;1456868;40;20789;-83
2021/05/28 00:17:40;;;;;;;12.27;4.93;;;;;;;;;;1451621;40;20422;-84
2021/05/28 00:18:41;;;;;;;11.73;5.60;;;;;;;;;;1457236;40;20578;-83
2021/05/28 00:19:43;;;;;;;14.57;5.63;;;;;;;;;;1457220;40;20450;-81
2021/05/28 00:20:44;;;;;;;16.15;5.65;;;;;;;;;;1459362;40;20413;-81
2021/05/28 00:21:46;;;;;;;12.35;5.88;;;;;;;;;;1458946;40;20863;-81
2021/05/28 00:22:48;;;;;;;13.50;5.43;;;;;;;;;;1459299;40;20425;-81
2021/05/28 00:23:49;;;;;;;11.32;5.50;;;;;;;;;;1453333;40;20803;-81
2021/05/28 00:24:51;;;;;;;12.07;5.65;;;;;;;;;;1454069;40;20437;-81
2021/05/28 00:25:53;;;;;;;11.20;4.70;;;;;;;;;;1453568;40;20544;-80
2021/05/28 00:26:54;;;;;;;13.27;5.65;;;;;;;;;;1461875;40;20444;-79
2021/05/28 00:27:56;;;;;;;11.30;5.57;;;;;;;;;;1461365;40;20439;-79
2021/05/28 00:28:58;;;;;;;12.85;5.65;;;;;;;;;;1461941;40;20486;-80
2021/05/28 00:30:00;;;;;;;10.52;5.45;;;;;;;;;;1461575;40;20579;-79
2021/05/28 00:31:02;;;;;;;15.45;6.35;;;;;;;;;;1460803;40;20942;-79
2021/05/28 00:32:06;;;;;;;16.85;6.72;;;;;;;;;;1459999;40;20470;-79
2021/05/28 00:33:08;;;;;;;16.23;5.45;;;;;;;;;;1452158;40;20953;-79
2021/05/28 00:34:09;;;;;;;11.18;6.35;;;;;;;;;;1450006;40;20481;-80
2021/05/28 00:35:11;;;;;;;12.05;5.80;;;;;;;;;;1455081;40;20426;-79
2021/05/28 00:36:13;;;;;;;14.57;7.03;;;;;;;;;;1452057;40;20476;-79
2021/05/28 00:37:15;;;;;;;12.25;6.07;;;;;;;;;;1453727;40;20420;-80
2021/05/28 00:38:16;;;;;;;12.75;6.15;;;;;;;;;;1461809;40;20425;-79
2021/05/28 00:39:18;;;;;;;11.32;5.10;;;;;;;;;;1457507;40;20403;-79
2021/05/28 00:40:20;;;;;;;16.08;6.60;;;;;;;;;;1453191;40;20802;-79
2021/05/28 00:41:21;;;;;;;11.60;6.03;;;;;;;;;;1457392;40;20504;-79
2021/05/28 00:42:23;;;;;;;14.90;5.63;;;;;;;;;;1457624;40;20415;-79
2021/05/28 00:43:24;;;;;;;10.95;5.78;;;;;;;;;;1461862;40;20436;-79
2021/05/28 00:44:27;;;;;;;13.27;5.70;;;;;;;;;;1455834;40;20935;-79
2021/05/28 00:45:29;;;;;;;11.93;6.30;;;;;;;;;;1461063;40;20638;-80
2021/05/28 00:46:31;;;;;;;15.95;6.57;;;;;;;;;;1461305;40;20437;-79
2021/05/28 00:47:34;;;;;;;9.65;5.22;;;;;;;;;;1460247;40;20446;-80
2021/05/28 00:48:35;;;;;;;8.63;5.47;;;;;;;;;;1459599;40;20476;-79
2021/05/28 00:49:37;;;;;;;11.85;5.18;;;;;;;;;;1453487;40;20420;-80
2021/05/28 00:50:38;;;;;;;10.80;5.47;;;;;;;;;;1456907;40;20517;-79
2021/05/28 00:51:40;;;;;;;11.30;6.18;;;;;;;;;;1457199;40;20486;-82
2021/05/28 00:52:42;;;;;;;20.25;6.15;;;;;;;;;;1457413;40;20502;-81
2021/05/28 00:53:44;;;;;;;9.07;5.18;;;;;;;;;;1457372;40;20515;-82
2021/05/28 00:54:45;;;;;;;9.30;5.55;;;;;;;;;;1456309;40;20438;-79
2021/05/28 00:55:47;;;;;;;16.58;6.65;;;;;;;;;;1461702;40;20432;-79
2021/05/28 00:56:49;;;;;;;10.00;5.78;;;;;;;;;;1456850;40;20419;-79
2021/05/28 00:57:51;;;;;;;12.38;6.03;;;;;;;;;;1452593;40;20424;-80
2021/05/28 00:59:00;;;;;;;12.25;5.63;;;;;;;;;;1449180;40;20853;-80
2021/05/28 01:00:03;;;;;;;8.23;5.10;;;;;;;;;;1450607;40;20421;-79
2021/05/28 01:01:05;;;;;;;12.18;5.85;;;;;;;;;;1453453;40;20479;-79
2021/05/28 01:02:06;;;;;;;10.77;5.78;;;;;;;;;;1457721;40;20407;-79
2021/05/28 01:03:08;;;;;;;14.50;6.30;;;;;;;;;;1453207;40;20934;-79
2021/05/28 01:04:10;;;;;;;12.32;6.60;;;;;;;;;;1452718;40;20861;-80
2021/05/28 01:05:13;;;;;;;13.20;5.93;;;;;;;;;;1460580;40;20432;-80
2021/05/28 01:06:14;;;;;;;13.07;6.93;;;;;;;;;;1461632;40;20417;-79
2021/05/28 01:07:16;;;;;;;15.35;6.53;;;;;;;;;;1457277;40;20434;-79
2021/05/28 01:08:17;;;;;;;14.88;7.15;;;;;;;;;;1457065;40;20426;-79
2021/05/28 01:09:19;;;;;;;15.38;6.28;;;;;;;;;;1461330;40;20893;-82
2021/05/28 01:10:21;;;;;;;12.63;6.63;;;;;;;;;;1464594;40;20415;-80
2021/05/28 01:11:23;;;;;;;14.85;6.15;;;;;;;;;;1453334;40;20545;-80
2021/05/28 01:12:25;;;;;;;8.98;5.78;;;;;;;;;;1453876;40;20540;-81
2021/05/28 01:13:27;;;;;;;10.15;5.80;;;;;;;;;;1461633;40;20409;-79
2021/05/28 01:14:29;;;;;;;8.48;5.53;;;;;;;;;;1461746;40;20807;-79
2021/05/28 01:15:31;;;;;;;11.68;5.82;;;;;;;;;;1457128;40;20454;-80
2021/05/28 01:16:34;;;;;;;12.48;6.28;;;;;;;;;;1457559;40;20527;-79
2021/05/28 01:17:35;;;;;;;11.15;6.03;;;;;;;;;;1457398;40;20753;-79
2021/05/28 01:18:37;;;;;;;13.45;7.40;;;;;;;;;;1457244;40;20438;-79
2021/05/28 01:19:38;;;;;;;16.17;9.55;;;;;;;;;;1456683;40;20586;-79
2021/05/28 01:20:40;;;;;;;12.98;8.93;;;;;;;;;;1453695;40;20457;-80
2021/05/28 01:21:44;;;;;;;15.32;10.02;;;;;;;;;;1455336;40;20411;-82
2021/05/28 01:22:47;;;;;;;16.85;9.68;;;;;;;;;;1456709;40;20399;-82
2021/05/28 01:23:49;;;;;;;14.52;8.98;;;;;;;;;;1453086;40;20436;-80
2021/05/28 01:24:51;;;;;;;20.67;10.55;;;;;;;;;;1457410;40;20423;-79
2021/05/28 01:25:52;;;;;;;17.42;10.57;;;;;;;;;;1457288;40;20506;-79
2021/05/28 01:26:54;;;;;;;23.48;12.65;;;;;;;;;;1457605;40;20495;-80
2021/05/28 01:27:55;;;;;;;21.42;12.35;;;;;;;;;;1461716;40;20532;-80
2021/05/28 01:28:57;;;;;;;18.90;12.85;;;;;;;;;;1453210;40;20460;-80
2021/05/28 01:29:59;;;;;;;23.40;14.30;;;;;;;;;;1453571;40;20567;-80
2021/05/28 01:31:01;;;;;;;21.67;15.07;;;;;;;;;;1462051;40;20409;-80
2021/05/28 01:32:03;;;;;;;26.23;15.77;;;;;;;;;;1461814;40;20568;-80
2021/05/28 01:33:05;;;;;;;24.23;15.32;;;;;;;;;;1452045;40;20470;-79
2021/05/28 01:34:07;;;;;;;23.60;15.45;;;;;;;;;;1451670;40;20579;-80
2021/05/28 01:35:13;;;;;;;25.23;16.05;;;;;;;;;;1454642;40;20552;-80
2021/05/28 01:36:15;;;;;;;23.92;16.45;;;;;;;;;;1457741;40;20523;-80
2021/05/28 01:37:17;;;;;;;26.88;16.85;;;;;;;;;;1453197;40;20420;-79
2021/05/28 01:38:19;;;;;;;24.67;16.87;;;;;;;;;;1453152;40;20516;-80
2021/05/28 01:39:20;;;;;;;28.23;17.92;;;;;;;;;;1454109;40;20645;-80
2021/05/28 01:40:23;;;;;;;30.00;17.67;;;;;;;;;;1450301;40;20904;-80
2021/05/28 01:41:31;;;;;;;24.65;17.10;;;;;;;;;;1458574;40;20543;-79
2021/05/28 01:42:32;;;;;;;25.55;17.92;;;;;;;;;;1463201;40;20425;-80
2021/05/28 01:43:34;;;;;;;25.85;16.02;;;;;;;;;;1462948;40;20397;-79
2021/05/28 01:44:36;;;;;;;29.50;17.70;;;;;;;;;;1461869;40;20830;-79
2021/05/28 01:45:37;;;;;;;29.58;18.58;;;;;;;;;;1462567;40;20424;-80
2021/05/28 01:46:39;;;;;;;28.73;17.88;;;;;;;;;;1462076;40;21151;-79
2021/05/28 01:47:41;;;;;;;26.33;18.33;;;;;;;;;;1456795;40;20956;-79
2021/05/28 01:48:42;;;;;;;26.85;18.33;;;;;;;;;;1457389;40;20509;-79
2021/05/28 01:49:44;;;;;;;28.65;17.98;;;;;;;;;;1461575;40;20805;-83
2021/05/28 01:50:46;;;;;;;30.20;18.45;;;;;;;;;;1457719;40;20944;-83
2021/05/28 01:51:51;;;;;;;25.95;18.52;;;;;;;;;;1457791;40;20411;-83
2021/05/28 01:52:53;;;;;;;26.60;17.88;;;;;;;;;;1462064;40;20513;-81
2021/05/28 01:53:54;;;;;;;27.48;17.58;;;;;;;;;;1453538;40;20452;-81
2021/05/28 01:54:56;;;;;;;28.10;18.45;;;;;;;;;;1453418;40;20428;-80
2021/05/28 01:55:58;;;;;;;24.58;18.92;;;;;;;;;;1457475;40;20474;-81
2021/05/28 01:57:02;;;;;;;23.20;17.38;;;;;;;;;;1457133;40;20472;-81
2021/05/28 01:58:10;;;;;;;24.08;17.40;;;;;;;;;;1457573;40;20508;-80
2021/05/28 01:59:30;;;;;;;28.30;17.50;;;;;;;;;;1461703;40;21257;-81
2021/05/28 02:00:31;;;;;;;21.35;16.45;;;;;;;;;;1453372;40;20409;-81
2021/05/28 02:01:33;;;;;;;28.63;17.92;;;;;;;;;;1454421;40;20471;-80
2021/05/28 02:02:34;;;;;;;23.75;16.52;;;;;;;;;;1461006;40;20780;-83
2021/05/28 02:03:37;;;;;;;24.58;16.77;;;;;;;;;;1460048;40;20414;-83
2021/05/28 02:04:39;;;;;;;21.27;14.77;;;;;;;;;;1454001;41;20426;-81
2021/05/28 02:05:43;;;;;;;21.77;14.57;;;;;;;;;;1458722;40;20443;-82
2021/05/28 02:06:45;;;;;;;24.25;14.10;;;;;;;;;;1463341;40;20426;-84
2021/05/28 02:07:46;;;;;;;19.83;13.60;;;;;;;;;;1459431;40;20410;-83
2021/05/28 02:08:48;;;;;;;23.08;14.75;;;;;;;;;;1459211;40;20716;-83
2021/05/28 02:09:49;;;;;;;21.13;14.07;;;;;;;;;;1450838;41;20495;-80
2021/05/28 02:10:51;;;;;;;24.85;13.68;;;;;;;;;;1450742;40;20447;-81
2021/05/28 02:11:53;;;;;;;16.77;12.55;;;;;;;;;;1462401;40;20421;-81
2021/05/28 02:12:55;;;;;;;17.20;12.30;;;;;;;;;;1462704;40;20413;-81
2021/05/28 02:13:57;;;;;;;14.98;12.05;;;;;;;;;;1462287;40;20439;-81
2021/05/28 02:15:00;;;;;;;18.23;12.60;;;;;;;;;;1462099;40;20432;-80
2021/05/28 02:16:02;;;;;;;21.08;12.85;;;;;;;;;;1453653;40;20458;-80
2021/05/28 02:17:04;;;;;;;22.73;11.98;;;;;;;;;;1450153;40;20449;-80
2021/05/28 02:18:06;;;;;;;16.40;11.35;;;;;;;;;;1453139;40;20427;-81
2021/05/28 02:19:09;;;;;;;17.35;11.07;;;;;;;;;;1457498;40;20483;-79
2021/05/28 02:20:11;;;;;;;16.67;11.82;;;;;;;;;;1459367;40;20441;-81
2021/05/28 02:21:13;;;;;;;19.10;10.85;;;;;;;;;;1453373;40;20568;-82
2021/05/28 02:22:15;;;;;;;16.98;10.77;;;;;;;;;;1457514;40;20548;-81
2021/05/28 02:23:19;;;;;;;19.17;11.32;;;;;;;;;;1457534;40;20515;-80
2021/05/28 02:24:22;;;;;;;14.70;10.55;;;;;;;;;;1452663;40;20423;-79
2021/05/28 02:25:24;;;;;;;15.57;11.20;;;;;;;;;;1453178;40;20424;-80
2021/05/28 02:26:26;;;;;;;23.42;11.57;;;;;;;;;;1453233;40;20507;-80
2021/05/28 02:27:31;;;;;;;22.75;11.73;;;;;;;;;;1453638;40;20475;-80
2021/05/28 02:28:33;;;;;;;16.55;10.40;;;;;;;;;;1457721;40;20439;-80
2021/05/28 02:29:34;;;;;;;17.73;10.15;;;;;;;;;;1453314;40;20428;-80
2021/05/28 02:30:36;;;;;;;13.38;10.40;;;;;;;;;;1449248;40;20863;-79
2021/05/28 02:31:38;;;;;;;13.40;10.38;;;;;;;;;;1453583;40;20473;-79
2021/05/28 02:32:40;;;;;;;14.40;10.20;;;;;;;;;;1456953;40;20459;-80
2021/05/28 02:33:42;;;;;;;14.63;10.02;;;;;;;;;;1461082;40;20416;-79
2021/05/28 02:34:44;;;;;;;15.60;10.43;;;;;;;;;;1459750;40;20890;-79
2021/05/28 02:35:46;;;;;;;15.00;9.50;;;;;;;;;;1456598;40;20437;-80
2021/05/28 02:36:48;;;;;;;19.65;10.88;;;;;;;;;;1454854;40;20454;-82
2021/05/28 02:37:49;;;;;;;17.25;10.48;;;;;;;;;;1457234;40;20431;-82
2021/05/28 02:38:51;;;;;;;18.25;9.95;;;;;;;;;;1457278;40;20526;-82
2021/05/28 02:39:52;;;;;;;15.85;10.27;;;;;;;;;;1457254;40;20502;-79
2021/05/28 02:40:54;;;;;;;14.57;10.45;;;;;;;;;;1462209;40;20421;-79
2021/05/28 02:41:56;;;;;;;14.15;10.02;;;;;;;;;;1457765;40;20465;-79
2021/05/28 02:42:57;;;;;;;11.93;10.00;;;;;;;;;;1457235;40;20423;-79
2021/05/28 02:43:59;;;;;;;17.48;10.32;;;;;;;;;;1461745;40;20651;-81
2021/05/28 02:45:03;;;;;;;15.05;10.45;;;;;;;;;;1456914;40;20485;-80
2021/05/28 02:46:05;;;;;;;14.00;9.40;;;;;;;;;;1457800;40;20422;-80
2021/05/28 02:47:07;;;;;;;15.48;10.40;;;;;;;;;;1457310;40;20497;-80
2021/05/28 02:48:08;;;;;;;17.63;10.38;;;;;;;;;;1456344;40;20445;-79
2021/05/28 02:49:10;;;;;;;15.18;10.05;;;;;;;;;;1460614;40;20417;-82
2021/05/28 02:50:12;;;;;;;17.35;9.75;;;;;;;;;;1459743;40;20570;-79
2021/05/28 02:51:13;;;;;;;12.35;9.40;;;;;;;;;;1453879;40;20436;-79
2021/05/28 02:52:15;;;;;;;18.08;10.15;;;;;;;;;;1454176;40;20436;-80
2021/05/28 02:53:17;;;;;;;19.35;9.82;;;;;;;;;;1453751;40;20451;-81
2021/05/28 02:54:18;;;;;;;15.80;9.40;;;;;;;;;;1454113;40;20435;-79
2021/05/28 02:55:20;;;;;;;16.85;9.43;;;;;;;;;;1457478;40;21407;-79
2021/05/28 02:56:22;;;;;;;16.17;10.02;;;;;;;;;;1457290;40;21209;-79
2021/05/28 02:57:23;;;;;;;17.88;9.95;;;;;;;;;;1458129;40;20515;-79
2021/05/28 02:58:25;;;;;;;16.77;9.75;;;;;;;;;;1462492;40;20428;-80
2021/05/28 02:59:27;;;;;;;15.32;10.30;;;;;;;;;;1457626;40;20490;-80
2021/05/28 03:00:28;;;;;;;14.32;9.82;;;;;;;;;;1453860;40;20420;-81
2021/05/28 03:01:30;;;;;;;13.57;8.95;;;;;;;;;;1454083;40;20528;-79
2021/05/28 03:02:31;;;;;;;19.73;10.60;;;;;;;;;;1457364;40;20468;-79
2021/05/28 03:03:35;;;;;;;15.48;8.98;;;;;;;;;;1460116;40;20871;-78
2021/05/28 03:04:37;;;;;;;15.90;9.23;;;;;;;;;;1454244;40;20816;-80
2021/05/28 03:05:39;;;;;;;16.52;10.27;;;;;;;;;;1453249;40;20451;-79
2021/05/28 03:06:41;;;;;;;16.48;9.52;;;;;;;;;;1454014;40;20498;-79
2021/05/28 03:07:43;;;;;;;17.08;10.25;;;;;;;;;;1449827;40;20462;-80
2021/05/28 03:08:45;;;;;;;14.68;10.40;;;;;;;;;;1453454;40;20428;-80
2021/05/28 03:09:47;;;;;;;14.05;10.52;;;;;;;;;;1449584;41;20506;-79
2021/05/28 03:10:48;;;;;;;18.60;11.15;;;;;;;;;;1452136;40;20440;-79
2021/05/28 03:11:50;;;;;;;14.35;10.88;;;;;;;;;;1453858;40;20404;-82
2021/05/28 03:12:52;;;;;;;14.02;9.93;;;;;;;;;;1458173;40;20419;-82
2021/05/28 03:13:53;;;;;;;20.15;10.50;;;;;;;;;;1457495;40;20526;-83
2021/05/28 03:14:55;;;;;;;17.25;10.80;;;;;;;;;;1457132;40;20872;-80
2021/05/28 03:15:57;;;;;;;13.40;10.40;;;;;;;;;;1453831;40;20424;-81
2021/05/28 03:16:58;;;;;;;13.70;9.48;;;;;;;;;;1458012;40;20836;-80
2021/05/28 03:18:00;;;;;;;19.15;10.27;;;;;;;;;;1457818;40;20425;-80
2021/05/28 03:19:06;;;;;;;14.20;8.32;;;;;;;;;;1457771;40;20430;-80
2021/05/28 03:20:17;;;;;;;16.13;9.80;;;;;;;;;;1450074;40;20453;-80
2021/05/28 03:22:34;;;;;;;12.07;9.05;;;;;;;;;;1456262;40;20992;-79
2021/05/28 03:23:36;;;;;;;18.35;10.25;;;;;;;;;;1462274;40;21004;-80
2021/05/28 03:24:37;;;;;;;11.27;9.20;;;;;;;;;;1461938;40;20460;-80
2021/05/28 03:25:39;;;;;;;13.90;9.90;;;;;;;;;;1453705;40;20487;-80
2021/05/28 03:26:41;;;;;;;11.35;9.45;;;;;;;;;;1453001;40;20564;-80
2021/05/28 03:27:44;;;;;;;13.43;9.77;;;;;;;;;;1457584;40;20490;-80
2021/05/28 03:28:46;;;;;;;15.13;10.35;;;;;;;;;;1457691;40;20914;-80
2021/05/28 03:29:47;;;;;;;12.82;9.80;;;;;;;;;;1457575;40;20833;-80
2021/05/28 03:30:49;;;;;;;15.23;10.07;;;;;;;;;;1458246;40;20403;-81
2021/05/28 03:31:51;;;;;;;12.13;9.82;;;;;;;;;;1458234;40;20789;-83
2021/05/28 03:32:52;;;;;;;16.05;10.23;;;;;;;;;;1457229;40;21187;-82
2021/05/28 03:33:54;;;;;;;12.10;9.75;;;;;;;;;;1449878;41;20530;-83
2021/05/28 03:34:57;;;;;;;16.15;10.43;;;;;;;;;;1450191;40;20876;-81
2021/05/28 03:35:59;;;;;;;12.57;9.02;;;;;;;;;;1458378;40;20406;-79
2021/05/28 03:37:01;;;;;;;11.70;9.60;;;;;;;;;;1456607;40;20469;-80
2021/05/28 03:38:03;;;;;;;14.75;10.43;;;;;;;;;;1457717;40;20502;-81
2021/05/28 03:39:05;;;;;;;16.75;10.05;;;;;;;;;;1453063;40;20531;-83
2021/05/28 03:40:08;;;;;;;16.63;10.63;;;;;;;;;;1453905;40;20432;-81
2021/05/28 03:41:10;;;;;;;18.60;10.65;;;;;;;;;;1457480;40;20527;-80
2021/05/28 03:42:12;;;;;;;18.10;11.25;;;;;;;;;;1457921;40;20439;-79
2021/05/28 03:43:14;;;;;;;17.13;11.05;;;;;;;;;;1457682;40;20429;-80
2021/05/28 03:44:15;;;;;;;13.57;10.82;;;;;;;;;;1453117;40;20893;-80
2021/05/28 03:45:17;;;;;;;16.33;11.43;;;;;;;;;;1453543;40;20547;-80
2021/05/28 03:46:19;;;;;;;15.82;11.35;;;;;;;;;;1457718;40;20434;-80
2021/05/28 03:47:21;;;;;;;18.80;11.52;;;;;;;;;;1453667;40;20517;-80
2021/05/28 03:48:23;;;;;;;16.17;11.80;;;;;;;;;;1457800;40;20427;-79
2021/05/28 03:49:25;;;;;;;18.48;10.70;;;;;;;;;;1461105;40;20481;-79
2021/05/28 03:50:26;;;;;;;18.67;12.60;;;;;;;;;;1457832;40;20510;-80
2021/05/28 03:51:28;;;;;;;15.98;11.57;;;;;;;;;;1457480;40;20426;-80
2021/05/28 03:52:29;;;;;;;18.52;12.27;;;;;;;;;;1452936;40;20698;-80
2021/05/28 03:53:31;;;;;;;17.63;11.70;;;;;;;;;;1454369;40;20880;-79
2021/05/28 03:54:33;;;;;;;14.95;11.65;;;;;;;;;;1458959;40;20709;-80
2021/05/28 03:55:34;;;;;;;15.57;12.65;;;;;;;;;;1453673;40;21222;-79
2021/05/28 03:56:36;;;;;;;18.67;13.23;;;;;;;;;;1453909;40;20479;-81
2021/05/28 03:57:38;;;;;;;18.27;12.40;;;;;;;;;;1454179;40;20409;-80
2021/05/28 03:58:39;;;;;;;17.90;12.20;;;;;;;;;;1454261;40;20783;-80
2021/05/28 03:59:41;;;;;;;14.82;11.80;;;;;;;;;;1453989;40;20423;-79
2021/05/28 04:00:42;;;;;;;16.27;12.77;;;;;;;;;;1454010;40;20481;-79
2021/05/28 04:01:44;;;;;;;18.30;12.27;;;;;;;;;;1454378;40;20906;-80
2021/05/28 04:02:46;;;;;;;17.55;11.80;;;;;;;;;;1454516;40;20420;-80
2021/05/28 04:03:47;;;;;;;14.20;11.80;;;;;;;;;;1453964;40;20477;-80
2021/05/28 04:04:49;;;;;;;15.25;11.85;;;;;;;;;;1455427;40;20450;-80
2021/05/28 04:05:50;;;;;;;18.13;13.05;;;;;;;;;;1446064;41;20511;-80
2021/05/28 04:06:52;;;;;;;17.98;13.20;;;;;;;;;;1448621;40;20552;-81
2021/05/28 04:07:55;;;;;;;13.98;11.98;;;;;;;;;;1462679;40;20420;-83
2021/05/28 04:08:57;;;;;;;17.67;11.15;;;;;;;;;;1453944;40;20420;-83
2021/05/28 04:09:59;;;;;;;38.78;13.30;;;;;;;;;;1454916;40;20420;-80
2021/05/28 04:11:01;;;;;;;14.57;12.13;;;;;;;;;;1458876;40;20875;-79
2021/05/28 04:12:02;;;;;;;25.48;13.52;;;;;;;;;;1455126;40;20428;-79
2021/05/28 04:13:04;;;;;;;21.90;13.25;;;;;;;;;;1454279;40;20428;-80
2021/05/28 04:14:06;;;;;;;20.65;14.55;;;;;;;;;;1454343;40;20531;-80
2021/05/28 04:15:11;;;;;;;21.75;15.88;;;;;;;;;;1458671;40;20418;-79
2021/05/28 04:16:13;;;;;;;148.37;140.23;;;;;;;;;;1463299;40;20570;-80
2021/05/28 04:17:14;;;;;;;205.77;194.25;;;;;;;;;;1457705;40;20709;-80
2021/05/28 04:18:16;;;;;;;190.77;179.15;;;;;;;;;;1457298;40;20423;-79
2021/05/28 04:19:18;;;;;;;175.70;164.73;;;;;;;;;;1461511;40;20440;-79
2021/05/28 04:20:19;;;;;;;165.32;153.63;;;;;;;;;;1461945;40;20791;-79
2021/05/28 04:21:21;;;;;;;175.88;165.02;;;;;;;;;;1457937;40;20745;-79
2021/05/28 04:22:23;;;;;;;155.65;145.38;;;;;;;;;;1457748;40;20423;-80
2021/05/28 04:23:24;;;;;;;129.60;120.90;;;;;;;;;;1462394;40;20748;-81
2021/05/28 04:24:26;;;;;;;155.43;145.38;;;;;;;;;;1451264;40;20442;-80
2021/05/28 04:25:28;;;;;;;136.27;126.72;;;;;;;;;;1450114;40;20421;-80
2021/05/28 04:26:29;;;;;;;82.50;75.85;;;;;;;;;;1455079;40;20517;-79
2021/05/28 04:27:31;;;;;;;45.63;41.33;;;;;;;;;;1452925;41;20426;-79
2021/05/28 04:28:33;;;;;;;65.15;60.17;;;;;;;;;;1454052;40;20510;-80
2021/05/28 04:29:34;;;;;;;69.10;63.85;;;;;;;;;;1459445;40;20427;-81
2021/05/28 04:30:36;;;;;;;47.38;43.45;;;;;;;;;;1462817;40;20410;-77
2021/05/28 04:31:37;;;;;;;55.15;50.90;;;;;;;;;;1466927;40;20408;-82
2021/05/28 04:32:39;;;;;;;58.35;53.50;;;;;;;;;;1459177;40;20415;-79
2021/05/28 04:33:41;;;;;;;53.80;49.45;;;;;;;;;;1458932;40;20509;-79
2021/05/28 04:34:45;;;;;;;59.05;54.03;;;;;;;;;;1463533;40;20445;-80
2021/05/28 04:35:47;;;;;;;56.88;52.42;;;;;;;;;;1454440;40;20832;-80
2021/05/28 04:36:49;;;;;;;59.92;55.20;;;;;;;;;;1458650;40;20419;-79
2021/05/28 04:37:50;;;;;;;62.15;57.15;;;;;;;;;;1462014;40;20540;-79
2021/05/28 04:38:52;;;;;;;67.53;61.50;;;;;;;;;;1458544;40;20772;-79
2021/05/28 04:39:53;;;;;;;71.53;65.65;;;;;;;;;;1461953;40;20842;-80
2021/05/28 04:40:55;;;;;;;72.82;65.93;;;;;;;;;;1461878;40;20946;-82
2021/05/28 04:41:57;;;;;;;76.30;69.95;;;;;;;;;;1457464;40;20801;-80
2021/05/28 04:42:59;;;;;;;77.67;72.17;;;;;;;;;;1462434;40;20606;-80
2021/05/28 04:44:01;;;;;;;87.90;81.45;;;;;;;;;;1461737;40;20467;-80
2021/05/28 04:45:04;;;;;;;79.75;71.80;;;;;;;;;;1461710;40;20795;-80
2021/05/28 04:46:06;;;;;;;83.75;75.00;;;;;;;;;;1453412;40;20460;-80
2021/05/28 04:47:07;;;;;;;85.88;78.32;;;;;;;;;;1453475;40;20830;-80
2021/05/28 04:48:09;;;;;;;93.97;86.35;;;;;;;;;;1453322;40;20431;-80
2021/05/28 04:49:11;;;;;;;87.70;81.13;;;;;;;;;;1453433;40;20420;-80
2021/05/28 04:50:13;;;;;;;94.78;85.75;;;;;;;;;;1455091;40;20862;-81
2021/05/28 04:51:16;;;;;;;90.57;84.30;;;;;;;;;;1449567;40;20866;-79
2021/05/28 04:52:18;;;;;;;91.00;85.13;;;;;;;;;;1449141;40;20484;-80
2021/05/28 04:53:19;;;;;;;95.07;88.78;;;;;;;;;;1449484;40;20743;-79
2021/05/28 04:54:22;;;;;;;95.00;88.60;;;;;;;;;;1456494;40;20814;-81
2021/05/28 04:55:23;;;;;;;87.68;81.13;;;;;;;;;;1465881;40;20439;-80
2021/05/28 04:56:25;;;;;;;109.68;102.50;;;;;;;;;;1456842;40;20872;-79
2021/05/28 04:57:26;;;;;;;104.10;96.97;;;;;;;;;;1453385;40;20435;-80
2021/05/28 04:58:28;;;;;;;95.25;88.93;;;;;;;;;;1457649;40;20395;-79
2021/05/28 04:59:30;;;;;;;105.45;98.70;;;;;;;;;;1457811;40;20427;-79
2021/05/28 05:00:32;;;;;;;99.85;93.57;;;;;;;;;;1461656;40;20556;-80
2021/05/28 05:01:34;;;;;;;95.13;88.55;;;;;;;;;;1457618;40;20522;-80
2021/05/28 05:02:35;;;;;;;83.72;78.05;;;;;;;;;;1461518;40;20460;-81
2021/05/28 05:03:38;;;;;;;82.63;76.78;;;;;;;;;;1457391;40;20542;-79
2021/05/28 05:04:40;;;;;;;98.88;92.00;;;;;;;;;;1449344;40;20438;-80
2021/05/28 05:05:42;;;;;;;89.55;83.47;;;;;;;;;;1449714;40;20470;-80
2021/05/28 05:06:43;;;;;;;87.75;81.93;;;;;;;;;;1452765;40;20433;-80
2021/05/28 05:07:45;;;;;;;90.40;84.38;;;;;;;;;;1452816;40;20523;-81
2021/05/28 05:08:47;;;;;;;76.70;71.40;;;;;;;;;;1453252;40;20428;-81
2021/05/28 05:09:49;;;;;;;93.90;87.55;;;;;;;;;;1453275;40;20449;-80
2021/05/28 05:10:51;;;;;;;79.15;73.82;;;;;;;;;;1457399;40;20497;-80
2021/05/28 05:11:53;;;;;;;81.45;75.93;;;;;;;;;;1461220;40;20578;-79
2021/05/28 05:12:55;;;;;;;77.22;72.20;;;;;;;;;;1461696;40;20409;-81
2021/05/28 05:13:57;;;;;;;113.15;105.65;;;;;;;;;;1457407;40;20890;-82
2021/05/28 05:14:59;;;;;;;114.43;107.10;;;;;;;;;;1453348;40;20420;-83
2021/05/28 05:16:01;;;;;;;105.35;98.63;;;;;;;;;;1453684;40;20475;-80
2021/05/28 05:17:02;;;;;;;114.80;107.13;;;;;;;;;;1461788;40;20516;-80
2021/05/28 05:18:06;;;;;;;108.45;100.80;;;;;;;;;;1461030;40;20438;-80
2021/05/28 05:19:08;;;;;;;92.20;85.60;;;;;;;;;;1461084;40;20428;-80
2021/05/28 05:20:10;;;;;;;80.90;74.70;;;;;;;;;;1465027;40;20504;-80
2021/05/28 05:21:12;;;;;;;88.53;82.40;;;;;;;;;;1459111;40;20438;-80
2021/05/28 05:22:13;;;;;;;94.93;88.45;;;;;;;;;;1455317;40;20435;-81
2021/05/28 05:23:15;;;;;;;90.35;84.32;;;;;;;;;;1458362;40;20491;-79
2021/05/28 05:24:17;;;;;;;72.90;67.93;;;;;;;;;;1459538;40;20478;-82
2021/05/28 05:25:18;;;;;;;76.95;71.85;;;;;;;;;;1454087;40;20444;-84
2021/05/28 05:26:20;;;;;;;83.63;78.38;;;;;;;;;;1446334;40;20487;-82
2021/05/28 05:27:22;;;;;;;75.03;70.20;;;;;;;;;;1450353;40;20406;-82
2021/05/28 05:28:23;;;;;;;72.95;68.22;;;;;;;;;;1458307;40;20911;-80
2021/05/28 05:29:25;;;;;;;84.78;79.07;;;;;;;;;;1454248;40;20448;-82
2021/05/28 05:30:27;;;;;;;107.63;100.65;;;;;;;;;;1453793;40;20423;-80
2021/05/28 05:31:29;;;;;;;112.07;105.18;;;;;;;;;;1453378;40;20476;-80
2021/05/28 05:32:31;;;;;;;121.47;114.28;;;;;;;;;;1454073;40;20464;-80
2021/05/28 05:33:32;;;;;;;109.15;102.30;;;;;;;;;;1453365;40;20416;-80
2021/05/28 05:34:34;;;;;;;101.63;95.23;;;;;;;;;;1453409;40;20983;-81
2021/05/28 05:35:36;;;;;;;105.72;99.07;;;;;;;;;;1453392;40;20491;-81
2021/05/28 05:36:40;;;;;;;130.10;122.50;;;;;;;;;;1453701;40;20412;-81
2021/05/28 05:37:42;;;;;;;109.95;103.25;;;;;;;;;;1453265;40;20419;-80
2021/05/28 05:38:43;;;;;;;118.80;111.50;;;;;;;;;;1453119;40;20423;-80
2021/05/28 05:39:45;;;;;;;111.30;104.53;;;;;;;;;;1461753;40;20413;-81
2021/05/28 05:40:48;;;;;;;112.80;105.93;;;;;;;;;;1461282;40;21155;-80
2021/05/28 05:41:50;;;;;;;122.20;114.68;;;;;;;;;;1457383;40;20426;-81
2021/05/28 05:42:52;;;;;;;114.80;107.70;;;;;;;;;;1457228;40;20895;-81
2021/05/28 05:43:53;;;;;;;117.88;110.38;;;;;;;;;;1456127;40;20705;-83
2021/05/28 05:44:55;;;;;;;137.32;129.07;;;;;;;;;;1457335;40;20446;-80
2021/05/28 05:45:56;;;;;;;116.15;108.78;;;;;;;;;;1451969;40;20424;-83
2021/05/28 05:46:58;;;;;;;131.98;124.03;;;;;;;;;;1449095;40;20820;-84
2021/05/28 05:48:01;;;;;;;157.52;148.10;;;;;;;;;;1456473;40;20737;-83
2021/05/28 05:49:03;;;;;;;158.52;149.27;;;;;;;;;;1460391;40;20511;-81
2021/05/28 05:51:27;;;;;;;147.93;139.30;;;;;;;;;;1454221;40;20484;-80
2021/05/28 05:52:29;;;;;;;144.43;135.68;;;;;;;;;;1457801;40;20472;-81
2021/05/28 05:53:31;;;;;;;136.63;128.13;;;;;;;;;;1453042;40;20490;-81
2021/05/28 05:54:33;;;;;;;136.20;127.53;;;;;;;;;;1453358;40;20415;-81
2021/05/28 05:55:35;;;;;;;136.90;128.45;;;;;;;;;;1457266;40;20419;-81
2021/05/28 05:56:37;;;;;;;130.30;121.65;;;;;;;;;;1456310;40;21119;-81
2021/05/28 05:57:39;;;;;;;141.93;133.40;;;;;;;;;;1456951;40;20546;-81
2021/05/28 05:58:41;;;;;;;173.27;163.32;;;;;;;;;;1457386;40;20423;-83
2021/05/28 05:59:42;;;;;;;161.45;151.88;;;;;;;;;;1457371;40;20497;-82
2021/05/28 06:00:44;;;;;;;150.15;141.35;;;;;;;;;;1449266;40;20538;-82
2021/05/28 06:01:46;;;;;;;141.68;132.88;;;;;;;;;;1449507;40;20449;-81
2021/05/28 06:02:47;;;;;;;143.15;134.40;;;;;;;;;;1457261;40;20439;-80
2021/05/28 06:03:49;;;;;;;150.02;140.70;;;;;;;;;;1454848;40;21125;-81